Terminal Aerodrome Forecast
Issued by NWS La Crosse, WI

Home | Current Version | Previous Version | Text Only | Print | Product List | Glossary On
Versions: 1 2 3 4 5 6 7 8 9 10 11 12 13 14 15 16 17 18 19 20 21 22 23 24 25
274
FTUS43 KARX 302329
TAFRST
TAF
KRST 302329Z 0100/0124 06018G27KT P6SM -SHRA OVC015
     FM010300 06014KT 3SM SHRA VCTS OVC008CB
     FM010600 06013KT 4SM BR VCSH OVC005
     FM011000 05011KT 2SM -SHRA BR OVC003
     FM011500 34013KT 3SM -SHRA OVC008
     FM011900 30015G23KT 4SM -SHRA OVC008=

USA.gov is the U.S. government's official web portal to all federal, state and local government web resources and services.